Terminal Aerodrome Forecast
Issued by NWS

Current Version | Previous Version | Text Only | Print | Product List | Glossary On
Versions: 1 2 3 4 5 6 7 8 9 10 11 12 13 14 15
000
FTUS42 KTBW 232200 AAA
TAFPGD
TAF AMD
KPGD 232244Z 2323/2418 25006KT P6SM VCTS SCT035CB BKN250
      TEMPO 2323/2401 4SM -TSRA BKN040CB
     FM240100 VRB03KT P6SM FEW025 SCT250
     FM241400 22005KT P6SM SCT035 SCT250=

USA.gov is the U.S. government's official web portal to all federal, state and local government web resources and services.